Time;durP1;ratioP1;P1;durP2;ratioP2;P2;SDS_P1;SDS_P2;PMS_P1;PMS_P2;Temp;Humidity;BMP_temperature;BMP_pressure;BME280_temperature;BME280_humidity;BME280_pressure;Samples;Min_cycle;Max_cycle;Signal;HPM_P1;HPM_P2
2021/01/23 00:00:58;;;;;;;8.97;5.20;;;1.50;99.90;;;;;;5009945;28;20488;-55
2021/01/23 00:03:24;;;;;;;11.07;6.20;;;1.50;99.90;;;;;;5008411;28;20401;-55
2021/01/23 00:05:49;;;;;;;10.57;5.53;;;1.60;99.90;;;;;;5010310;28;20877;-56
2021/01/23 00:08:15;;;;;;;9.70;5.33;;;1.60;99.90;;;;;;5008540;28;20419;-55
2021/01/23 00:10:43;;;;;;;11.55;5.90;;;3.20;99.90;;;;;;5009052;28;20392;-56
2021/01/23 00:13:09;;;;;;;11.05;6.32;;;1.40;99.90;;;;;;5009895;28;20412;-55
2021/01/23 00:15:34;;;;;;;13.87;7.73;;;1.40;99.90;;;;;;5008934;28;20447;-55
2021/01/23 00:18:00;;;;;;;15.37;8.53;;;1.40;99.90;;;;;;5013344;28;21013;-55
2021/01/23 00:20:25;;;;;;;16.40;8.40;;;3.60;99.90;;;;;;5010814;28;20420;-55
2021/01/23 00:22:51;;;;;;;16.73;8.73;;;1.40;99.90;;;;;;5013766;28;20387;-56
2021/01/23 00:25:17;;;;;;;14.20;8.47;;;1.40;99.90;;;;;;5013830;28;20400;-54
2021/01/23 00:27:42;;;;;;;14.50;7.85;;;3.70;99.90;;;;;;5011849;28;20788;-55
2021/01/23 00:30:09;;;;;;;16.37;8.70;;;1.50;99.90;;;;;;5013744;28;20399;-56
2021/01/23 00:32:34;;;;;;;18.92;9.55;;;1.50;99.90;;;;;;5013300;28;20396;-55
2021/01/23 00:35:00;;;;;;;18.38;9.57;;;1.50;99.90;;;;;;5012537;28;20412;-55
2021/01/23 00:37:26;;;;;;;18.90;9.90;;;1.40;99.90;;;;;;5012904;28;20388;-57
2021/01/23 00:39:51;;;;;;;17.77;10.47;;;1.40;99.90;;;;;;5013805;28;20475;-56
2021/01/23 00:42:17;;;;;;;19.02;10.45;;;3.60;99.90;;;;;;5011105;28;20865;-54
2021/01/23 00:44:43;;;;;;;20.00;12.00;;;1.50;99.90;;;;;;5013931;28;20395;-55
2021/01/23 00:47:08;;;;;;;22.77;11.50;;;4.00;99.90;;;;;;5011764;28;20504;-56
2021/01/23 00:49:34;;;;;;;22.95;9.70;;;4.20;99.90;;;;;;5012265;28;20881;-55
2021/01/23 00:51:59;;;;;;;19.63;9.83;;;1.40;99.90;;;;;;5012068;28;20427;-56
2021/01/23 00:54:25;;;;;;;24.43;9.80;;;3.30;99.90;;;;;;5011543;28;20750;-55
2021/01/23 00:56:50;;;;;;;16.30;8.05;;;1.50;99.90;;;;;;5012767;28;20795;-55
2021/01/23 00:59:16;;;;;;;15.97;8.00;;;3.20;99.90;;;;;;5013559;28;20760;-56
2021/01/23 01:01:42;;;;;;;17.20;8.70;;;4.70;99.90;;;;;;5011537;28;20858;-56
2021/01/23 01:04:07;;;;;;;18.77;8.80;;;1.60;99.90;;;;;;5012434;28;20428;-55
2021/01/23 01:06:33;;;;;;;19.63;9.40;;;1.70;99.90;;;;;;5012297;28;20388;-55
2021/01/23 01:08:58;;;;;;;20.27;9.37;;;1.60;99.90;;;;;;5011713;28;20426;-55
2021/01/23 01:11:24;;;;;;;21.60;11.32;;;4.40;99.90;;;;;;5012186;28;20388;-54
2021/01/23 01:13:50;;;;;;;22.80;11.47;;;1.50;99.90;;;;;;5011429;28;20791;-55
2021/01/23 01:16:15;;;;;;;22.80;12.30;;;1.50;99.90;;;;;;5013387;28;20392;-55
2021/01/23 01:18:43;;;;;;;27.77;13.98;;;1.80;99.90;;;;;;5011905;28;20744;-55
2021/01/23 01:21:09;;;;;;;27.85;14.73;;;3.70;99.90;;;;;;5011450;28;20890;-56
2021/01/23 01:23:34;;;;;;;25.67;13.07;;;1.70;99.90;;;;;;5012102;28;20423;-57
2021/01/23 01:26:00;;;;;;;27.08;12.52;;;2.90;99.90;;;;;;5012525;28;20388;-56
2021/01/23 01:28:26;;;;;;;30.00;14.50;;;1.70;99.90;;;;;;5008318;28;20516;-55
2021/01/23 01:30:52;;;;;;;26.00;13.57;;;1.70;99.90;;;;;;5010425;28;20564;-55
2021/01/23 01:33:18;;;;;;;26.48;13.57;;;1.80;99.90;;;;;;5012864;28;20395;-55
2021/01/23 01:35:44;;;;;;;30.70;15.02;;;1.80;99.90;;;;;;5012348;28;20388;-54
2021/01/23 01:38:09;;;;;;;32.85;16.35;;;2.30;99.90;;;;;;5011042;28;20396;-55
2021/01/23 01:40:35;;;;;;;30.60;15.53;;;2.00;99.90;;;;;;5010154;28;20436;-55
2021/01/23 01:43:01;;;;;;;29.05;16.05;;;1.80;99.90;;;;;;5010730;28;20396;-55
2021/01/23 01:45:26;;;;;;;33.72;17.02;;;1.70;99.90;;;;;;5011619;28;20393;-55
2021/01/23 01:47:52;;;;;;;41.37;21.00;;;1.80;99.90;;;;;;5011094;28;20455;-55
2021/01/23 01:50:19;;;;;;;37.67;17.93;;;1.80;99.90;;;;;;5012259;28;20396;-55
2021/01/23 01:52:45;;;;;;;27.65;13.13;;;2.10;99.90;;;;;;5009070;28;20416;-55
2021/01/23 01:55:12;;;;;;;21.13;10.57;;;4.50;99.90;;;;;;5000630;28;20403;-55
2021/01/23 01:57:38;;;;;;;19.05;10.25;;;1.60;99.90;;;;;;5003977;28;20409;-55
2021/01/23 02:00:08;;;;;;;19.50;10.30;;;1.70;99.90;;;;;;5004822;28;20732;-55
2021/01/23 02:03:07;;;;;;;15.40;8.00;;;1.70;99.90;;;;;;5010288;28;20404;-55
2021/01/23 02:05:57;;;;;;;16.67;8.25;;;1.60;99.90;;;;;;5003753;28;20408;-55
2021/01/23 02:08:41;;;;;;;15.05;7.93;;;1.50;99.90;;;;;;5011362;28;20902;-54
2021/01/23 02:11:22;;;;;;;14.82;7.72;;;1.60;99.90;;;;;;5010298;28;20401;-55
2021/01/23 02:13:53;;;;;;;14.10;7.70;;;1.60;99.90;;;;;;5011945;28;20435;-55
2021/01/23 02:16:29;;;;;;;12.73;6.65;;;4.20;99.90;;;;;;5011365;28;20802;-54
2021/01/23 02:19:00;;;;;;;15.52;7.53;;;4.00;99.90;;;;;;5011324;28;20404;-56
2021/01/23 02:22:17;;;;;;;14.75;7.30;;;1.60;99.90;;;;;;5002505;28;20406;-55
2021/01/23 02:24:51;;;;;;;14.43;7.75;;;1.60;99.90;;;;;;4991652;28;20493;-56
2021/01/23 02:27:41;;;;;;;14.47;7.10;;;1.70;99.90;;;;;;4996745;28;20409;-55
2021/01/23 02:30:23;;;;;;;13.63;7.00;;;1.60;99.90;;;;;;5006271;28;20405;-55
2021/01/23 02:32:54;;;;;;;13.40;6.30;;;1.60;99.90;;;;;;4999599;28;20563;-55
2021/01/23 02:35:21;;;;;;;12.93;5.65;;;1.60;99.90;;;;;;4999396;28;20879;-54
2021/01/23 02:37:49;;;;;;;9.35;4.70;;;1.50;99.90;;;;;;4997614;28;20545;-55
2021/01/23 02:40:15;;;;;;;9.23;4.88;;;4.20;99.90;;;;;;4998524;28;20458;-55
2021/01/23 02:42:43;;;;;;;8.87;4.70;;;1.60;99.90;;;;;;4998083;28;20711;-55
2021/01/23 02:45:09;;;;;;;9.32;4.72;;;1.60;99.90;;;;;;5000579;28;20476;-55
2021/01/23 02:47:36;;;;;;;8.70;4.60;;;1.60;99.90;;;;;;4998094;28;20756;-54
2021/01/23 02:50:04;;;;;;;9.15;4.53;;;1.60;99.90;;;;;;4996690;28;20879;-55
2021/01/23 02:52:57;;;;;;;10.35;5.25;;;1.60;99.90;;;;;;4995479;28;20470;-54
2021/01/23 02:55:29;;;;;;;7.40;4.37;;;1.60;99.90;;;;;;4997928;28;20428;-54
2021/01/23 02:57:55;;;;;;;8.80;4.60;;;1.60;99.90;;;;;;4996756;28;20385;-55
2021/01/23 03:00:23;;;;;;;9.02;4.68;;;2.80;99.90;;;;;;4997883;28;20465;-54
2021/01/23 03:02:54;;;;;;;8.75;4.07;;;1.70;99.90;;;;;;4996934;28;20453;-54
2021/01/23 03:05:24;;;;;;;8.30;4.30;;;1.60;99.90;;;;;;4998202;28;20453;-55
2021/01/23 03:07:54;;;;;;;7.38;4.10;;;1.60;99.90;;;;;;4997881;28;20507;-55
2021/01/23 03:10:32;;;;;;;8.48;4.03;;;1.70;99.90;;;;;;4996480;28;20504;-55
2021/01/23 03:12:58;;;;;;;8.80;4.53;;;1.70;99.90;;;;;;4998363;28;20455;-55
2021/01/23 03:15:23;;;;;;;8.10;4.70;;;1.80;99.90;;;;;;4998149;28;20401;-54
2021/01/23 03:17:49;;;;;;;8.40;4.50;;;4.50;99.90;;;;;;4997083;28;20410;-55
2021/01/23 03:20:14;;;;;;;9.43;4.80;;;2.70;99.90;;;;;;4996178;28;20423;-55
2021/01/23 03:22:40;;;;;;;9.60;4.30;;;1.90;99.90;;;;;;4997190;28;20418;-55
2021/01/23 03:25:06;;;;;;;8.88;4.93;;;3.30;99.90;;;;;;4997405;28;20429;-54
2021/01/23 03:27:32;;;;;;;11.85;5.00;;;2.00;99.90;;;;;;4996374;28;20431;-55
2021/01/23 03:29:57;;;;;;;9.45;4.95;;;2.00;99.90;;;;;;5012057;28;20417;-55
2021/01/23 03:32:23;;;;;;;9.47;5.10;;;1.90;99.90;;;;;;4995798;28;20414;-54
2021/01/23 03:34:48;;;;;;;11.75;5.20;;;1.90;99.90;;;;;;4998101;28;20474;-55
2021/01/23 03:37:14;;;;;;;9.73;5.10;;;3.10;99.90;;;;;;4997548;28;20427;-55
2021/01/23 03:39:40;;;;;;;9.43;5.13;;;1.90;99.90;;;;;;4996968;28;21145;-55
2021/01/23 03:42:05;;;;;;;10.38;5.40;;;4.40;99.90;;;;;;4997033;28;20427;-55
2021/01/23 03:44:31;;;;;;;10.05;5.38;;;2.00;99.90;;;;;;4995938;28;20882;-55
2021/01/23 03:46:57;;;;;;;9.67;5.50;;;4.80;99.90;;;;;;4996910;28;20433;-54
2021/01/23 03:49:22;;;;;;;9.60;5.10;;;3.00;99.90;;;;;;4997363;28;20478;-54
2021/01/23 03:51:48;;;;;;;11.93;5.50;;;1.80;99.90;;;;;;4995564;28;20901;-55
2021/01/23 03:54:13;;;;;;;13.20;6.80;;;1.80;99.90;;;;;;4998242;28;20424;-55
2021/01/23 03:56:39;;;;;;;14.02;7.07;;;2.50;99.90;;;;;;5003528;28;20415;-55
2021/01/23 03:59:04;;;;;;;15.33;7.30;;;3.40;99.90;;;;;;5006266;28;20406;-55
2021/01/23 04:01:31;;;;;;;13.70;7.35;;;2.00;99.90;;;;;;4997167;28;20775;-55
2021/01/23 04:03:57;;;;;;;13.60;7.25;;;1.90;99.90;;;;;;4997229;28;20416;-54
2021/01/23 04:06:23;;;;;;;14.17;7.00;;;4.90;99.90;;;;;;4997206;28;20497;-54
2021/01/23 04:08:48;;;;;;;17.00;7.72;;;3.50;99.90;;;;;;4996104;28;20404;-54
2021/01/23 04:11:14;;;;;;;13.93;7.25;;;2.40;99.90;;;;;;5002392;28;20816;-55
2021/01/23 04:13:40;;;;;;;13.73;7.00;;;1.90;99.90;;;;;;5009069;28;20400;-55
2021/01/23 04:16:05;;;;;;;15.03;7.10;;;1.90;99.90;;;;;;5008638;28;20412;-55
2021/01/23 04:18:31;;;;;;;14.60;7.70;;;2.00;99.90;;;;;;5009139;28;20385;-55
2021/01/23 04:20:57;;;;;;;12.98;7.00;;;2.00;99.90;;;;;;5008730;28;20423;-54
2021/01/23 04:23:23;;;;;;;15.43;7.50;;;2.10;99.90;;;;;;5010350;28;20389;-55
2021/01/23 04:25:48;;;;;;;13.63;7.10;;;2.20;99.90;;;;;;5009491;28;20384;-55
2021/01/23 04:28:15;;;;;;;15.93;7.83;;;2.30;99.90;;;;;;5008634;28;20755;-55
2021/01/23 04:30:42;;;;;;;13.00;6.73;;;3.50;99.90;;;;;;5009120;28;20404;-55
2021/01/23 04:33:08;;;;;;;13.98;7.15;;;3.60;99.90;;;;;;5008468;28;20404;-55
2021/01/23 04:35:34;;;;;;;13.35;6.97;;;2.70;99.90;;;;;;5008723;28;20431;-55
2021/01/23 04:37:59;;;;;;;12.05;7.00;;;2.50;99.90;;;;;;5009020;28;20742;-55
2021/01/23 04:40:27;;;;;;;10.67;6.03;;;5.10;99.90;;;;;;5009711;28;20385;-54
2021/01/23 04:42:53;;;;;;;12.43;6.00;;;4.50;99.90;;;;;;5008940;28;20399;-56
2021/01/23 04:45:19;;;;;;;11.50;5.88;;;4.80;99.90;;;;;;5009430;28;20405;-53
2021/01/23 04:47:44;;;;;;;11.25;5.68;;;4.10;99.90;;;;;;5009652;28;20414;-53
2021/01/23 04:50:11;;;;;;;12.67;5.90;;;2.70;99.90;;;;;;5007859;28;20411;-53
2021/01/23 04:52:40;;;;;;;11.10;5.60;;;2.80;99.90;;;;;;5009282;28;20377;-53
2021/01/23 04:55:08;;;;;;;11.18;5.15;;;5.50;99.90;;;;;;5008502;28;20503;-53
2021/01/23 04:57:33;;;;;;;9.68;4.85;;;2.90;99.90;;;;;;5008526;28;20407;-53
2021/01/23 04:59:59;;;;;;;9.60;5.40;;;2.90;99.90;;;;;;5009907;28;20385;-53
2021/01/23 05:02:25;;;;;;;12.30;4.65;;;3.30;99.90;;;;;;5009219;28;20493;-53
2021/01/23 05:04:59;;;;;;;11.32;5.60;;;2.80;99.90;;;;;;5013105;28;20894;-54
2021/01/23 05:07:39;;;;;;;10.27;4.90;;;3.10;99.90;;;;;;5011228;28;20498;-53
2021/01/23 05:10:15;;;;;;;9.77;5.03;;;2.80;99.90;;;;;;5012938;28;20388;-53
2021/01/23 05:12:50;;;;;;;9.23;4.57;;;2.80;99.90;;;;;;5010581;28;20408;-53
2021/01/23 05:15:45;;;;;;;8.93;4.75;;;2.80;99.90;;;;;;5011593;28;20884;-53
2021/01/23 05:18:13;;;;;;;8.23;4.80;;;2.90;99.90;;;;;;4999174;28;20423;-53
2021/01/23 05:20:45;;;;;;;8.52;4.28;;;3.10;99.90;;;;;;5010131;28;20456;-53
2021/01/23 05:23:23;;;;;;;9.80;4.50;;;3.00;99.90;;;;;;4997737;28;20427;-53
2021/01/23 05:25:51;;;;;;;11.52;4.15;;;3.00;99.90;;;;;;5010619;28;20846;-53
2021/01/23 05:28:37;;;;;;;8.05;3.65;;;3.00;99.90;;;;;;5011066;28;20444;-53
2021/01/23 05:31:17;;;;;;;7.53;4.05;;;3.50;99.90;;;;;;5012592;28;20405;-53
2021/01/23 05:33:42;;;;;;;7.40;3.60;;;3.10;99.90;;;;;;5009725;28;20405;-53
2021/01/23 05:36:13;;;;;;;7.15;3.83;;;4.60;99.90;;;;;;5010577;28;20409;-53
2021/01/23 05:38:40;;;;;;;8.02;3.45;;;3.10;99.90;;;;;;5011378;28;20443;-54
2021/01/23 05:41:10;;;;;;;6.70;3.53;;;3.10;99.90;;;;;;5011232;28;20401;-54
2021/01/23 05:43:45;;;;;;;9.23;3.70;;;3.80;99.90;;;;;;5011403;28;20411;-53
2021/01/23 05:46:17;;;;;;;13.85;3.80;;;3.10;99.90;;;;;;5009451;28;20763;-54
2021/01/23 05:48:47;;;;;;;6.25;3.22;;;3.00;99.90;;;;;;5010590;28;20903;-53
2021/01/23 05:51:15;;;;;;;6.50;3.30;;;3.00;99.90;;;;;;5010946;28;20459;-52
2021/01/23 05:53:41;;;;;;;6.57;3.20;;;5.10;99.90;;;;;;5011278;28;20385;-53
2021/01/23 05:56:07;;;;;;;9.50;3.30;;;3.00;99.90;;;;;;5012051;28;20437;-53
2021/01/23 05:58:34;;;;;;;7.63;3.10;;;3.10;99.90;;;;;;5009738;28;20404;-53
2021/01/23 06:01:03;;;;;;;5.90;3.17;;;2.90;99.90;;;;;;5011412;28;20405;-53
2021/01/23 06:03:36;;;;;;;6.78;3.17;;;2.90;99.90;;;;;;5009504;28;20403;-52
2021/01/23 06:06:02;;;;;;;9.15;3.40;;;2.90;99.90;;;;;;5009637;28;20431;-53
2021/01/23 06:08:54;;;;;;;6.95;3.58;;;2.90;99.90;;;;;;5009081;28;20436;-52
2021/01/23 06:11:20;;;;;;;8.10;3.35;;;5.60;99.90;;;;;;5006932;28;20464;-52
2021/01/23 06:13:52;;;;;;;6.50;3.40;;;5.30;99.90;;;;;;5008843;28;21080;-53
2021/01/23 06:16:33;;;;;;;6.88;3.20;;;2.80;99.90;;;;;;5010731;28;20595;-53
2021/01/23 06:19:04;;;;;;;7.32;4.00;;;3.70;99.90;;;;;;5009938;28;20528;-53
2021/01/23 06:21:42;;;;;;;8.70;4.00;;;4.30;99.90;;;;;;5010940;28;20380;-53
2021/01/23 06:24:07;;;;;;;7.85;3.50;;;2.60;99.90;;;;;;5009842;28;20491;-53
2021/01/23 06:26:53;;;;;;;8.50;3.80;;;2.60;99.90;;;;;;5010338;28;20405;-54
2021/01/23 06:29:41;;;;;;;7.93;4.00;;;3.20;99.90;;;;;;5010353;28;20771;-53
2021/01/23 06:32:13;;;;;;;9.87;3.70;;;2.70;99.90;;;;;;4990281;28;20450;-53
2021/01/23 06:35:01;;;;;;;9.50;3.80;;;2.70;99.90;;;;;;5010634;28;20484;-53
2021/01/23 06:37:42;;;;;;;5.90;3.20;;;2.80;99.90;;;;;;5011468;28;20399;-52
2021/01/23 06:40:11;;;;;;;7.87;3.60;;;2.80;99.90;;;;;;5010006;28;20577;-54
2021/01/23 06:42:41;;;;;;;7.70;3.60;;;2.90;99.90;;;;;;5007983;28;20440;-53
2021/01/23 06:45:11;;;;;;;8.90;4.07;;;2.90;99.90;;;;;;5009834;28;20420;-53
2021/01/23 06:47:38;;;;;;;7.82;3.50;;;3.00;99.90;;;;;;5009840;28;20427;-53
2021/01/23 06:50:04;;;;;;;6.78;3.25;;;4.90;99.90;;;;;;5010535;28;20384;-54
2021/01/23 06:52:30;;;;;;;9.50;4.00;;;3.00;99.90;;;;;;5009552;28;20397;-52
2021/01/23 06:54:56;;;;;;;7.25;3.28;;;2.00;99.90;;;;;;5007212;28;21316;-52
2021/01/23 06:57:21;;;;;;;8.53;3.53;;;5.60;99.90;;;;;;5005509;28;20496;-53
2021/01/23 06:59:48;;;;;;;7.50;3.20;;;4.70;99.90;;;;;;5004474;28;20502;-53
2021/01/23 07:02:14;;;;;;;7.07;3.30;;;2.90;99.90;;;;;;5007233;28;20423;-53
2021/01/23 07:04:48;;;;;;;7.90;3.30;;;4.30;99.90;;;;;;5009570;28;20389;-52
2021/01/23 07:07:14;;;;;;;7.15;4.50;;;3.30;99.90;;;;;;5009003;28;20407;-53
2021/01/23 07:09:51;;;;;;;7.38;3.80;;;3.00;99.90;;;;;;5009513;28;20371;-53
2021/01/23 07:12:37;;;;;;;9.32;3.70;;;3.00;99.90;;;;;;5003904;28;20405;-54
2021/01/23 07:15:05;;;;;;;6.75;3.58;;;3.00;99.90;;;;;;5009412;28;20381;-53
2021/01/23 07:17:38;;;;;;;8.18;3.80;;;3.00;99.90;;;;;;5002491;28;20445;-52
2021/01/23 07:20:08;;;;;;;7.50;4.00;;;4.30;99.90;;;;;;5005920;28;20488;-53
2021/01/23 07:22:35;;;;;;;8.68;3.33;;;2.90;99.90;;;;;;5006548;28;20799;-52
2021/01/23 07:25:03;;;;;;;6.88;3.50;;;3.90;99.90;;;;;;5009895;28;20464;-53
2021/01/23 07:27:29;;;;;;;7.45;3.40;;;3.90;99.90;;;;;;5008324;28;20427;-52
2021/01/23 07:29:55;;;;;;;7.10;3.70;;;5.70;99.90;;;;;;5006822;28;20404;-53
2021/01/23 07:32:20;;;;;;;7.60;3.37;;;4.40;99.90;;;;;;4999607;28;20503;-53
2021/01/23 07:34:53;;;;;;;9.97;4.20;;;3.30;99.90;;;;;;5003163;28;20413;-53
2021/01/23 07:37:42;;;;;;;9.18;4.25;;;3.90;99.90;;;;;;5008211;28;20404;-53
2021/01/23 07:40:09;;;;;;;8.20;4.20;;;3.00;99.90;;;;;;5008107;28;20878;-53
2021/01/23 07:42:35;;;;;;;7.53;3.83;;;2.90;99.90;;;;;;5007901;28;20393;-52
2021/01/23 07:45:07;;;;;;;8.07;3.80;;;4.40;99.90;;;;;;5006791;28;20421;-52
2021/01/23 07:47:33;;;;;;;7.70;3.92;;;2.90;99.90;;;;;;5004277;28;20916;-52
2021/01/23 07:50:13;;;;;;;7.22;3.70;;;2.90;99.90;;;;;;5007934;28;20489;-53
2021/01/23 07:52:40;;;;;;;15.85;9.38;;;3.00;99.90;;;;;;5005059;28;20404;-53
2021/01/23 07:55:08;;;;;;;12.70;4.50;;;3.60;99.90;;;;;;5005472;28;20447;-53
2021/01/23 07:57:33;;;;;;;9.75;3.70;;;3.20;99.90;;;;;;5004324;28;20479;-53
2021/01/23 07:59:59;;;;;;;9.60;4.00;;;3.40;99.90;;;;;;5005777;28;20432;-53
2021/01/23 08:02:25;;;;;;;9.40;4.40;;;3.30;99.90;;;;;;5005169;28;20448;-53
2021/01/23 08:04:53;;;;;;;9.40;4.10;;;4.60;99.90;;;;;;5006518;28;20455;-53
2021/01/23 08:07:30;;;;;;;10.23;4.18;;;5.60;99.90;;;;;;5008604;28;20523;-53
2021/01/23 08:10:04;;;;;;;12.50;3.92;;;3.40;99.90;;;;;;5005296;28;20487;-53
2021/01/23 08:12:30;;;;;;;10.52;4.35;;;3.30;99.90;;;;;;5006569;28;20499;-53
2021/01/23 08:14:56;;;;;;;7.30;3.60;;;3.40;99.90;;;;;;5008479;28;20477;-53
2021/01/23 08:17:43;;;;;;;9.77;4.00;;;3.50;99.90;;;;;;5008927;28;20389;-53
2021/01/23 08:20:17;;;;;;;7.15;3.70;;;3.50;99.90;;;;;;5007145;28;20499;-53
2021/01/23 08:23:06;;;;;;;9.32;3.58;;;3.50;99.90;;;;;;5006896;28;20428;-53
2021/01/23 08:25:55;;;;;;;8.85;3.90;;;3.80;99.90;;;;;;5005806;28;20384;-53
2021/01/23 08:28:35;;;;;;;12.27;4.67;;;5.30;99.90;;;;;;5007367;28;20855;-53
2021/01/23 08:31:17;;;;;;;7.30;3.50;;;4.20;99.90;;;;;;5000563;28;20835;-53
2021/01/23 08:33:44;;;;;;;7.07;3.70;;;4.20;99.90;;;;;;5005157;28;20397;-53
2021/01/23 08:36:10;;;;;;;7.75;3.60;;;4.30;99.90;;;;;;5003576;28;20396;-53
2021/01/23 08:38:36;;;;;;;6.60;3.45;;;4.40;99.90;;;;;;5009170;28;20468;-53
2021/01/23 08:41:02;;;;;;;10.13;3.60;;;4.40;99.90;;;;;;5007394;28;20827;-53
2021/01/23 08:43:31;;;;;;;7.28;3.50;;;4.70;99.90;;;;;;5008735;28;20411;-53
2021/01/23 08:45:57;;;;;;;11.05;3.65;;;4.60;99.90;;;;;;5004447;28;20417;-53
2021/01/23 08:48:22;;;;;;;8.33;3.83;;;4.80;99.90;;;;;;5011138;28;20419;-56
2021/01/23 08:50:48;;;;;;;8.10;3.77;;;6.60;99.90;;;;;;5002568;28;20732;-56
2021/01/23 08:53:14;;;;;;;10.88;3.40;;;5.30;99.90;;;;;;5006830;28;20412;-56
2021/01/23 08:55:40;;;;;;;8.00;3.40;;;5.50;99.90;;;;;;5003061;28;20515;-56
2021/01/23 08:58:05;;;;;;;7.10;3.20;;;5.60;99.90;;;;;;5008551;28;20411;-57
2021/01/23 09:00:31;;;;;;;6.38;3.50;;;5.60;99.90;;;;;;5007857;28;20401;-55
2021/01/23 09:03:00;;;;;;;7.00;3.73;;;5.60;99.90;;;;;;5001008;28;20397;-56
2021/01/23 09:05:26;;;;;;;7.18;3.30;;;5.70;99.90;;;;;;5006555;28;20401;-56
2021/01/23 09:07:52;;;;;;;8.38;3.58;;;5.90;99.90;;;;;;5009189;28;20417;-55
2021/01/23 09:10:19;;;;;;;7.30;3.90;;;6.00;99.90;;;;;;5010754;28;20401;-56
2021/01/23 09:12:44;;;;;;;6.65;3.47;;;6.10;99.90;;;;;;5009533;28;20823;-55
2021/01/23 09:15:10;;;;;;;7.73;3.40;;;6.00;99.90;;;;;;5011444;28;20475;-56
2021/01/23 09:17:37;;;;;;;6.18;3.30;;;6.10;99.90;;;;;;5008599;28;20443;-55
2021/01/23 09:20:04;;;;;;;7.40;3.60;;;6.70;99.90;;;;;;5010243;28;20409;-56
2021/01/23 09:22:29;;;;;;;6.13;3.42;;;6.10;99.90;;;;;;5010071;28;20468;-56
2021/01/23 09:24:55;;;;;;;7.07;3.75;;;6.20;99.90;;;;;;5010803;28;20488;-56
2021/01/23 09:27:21;;;;;;;6.77;4.00;;;6.30;99.90;;;;;;5009349;28;20405;-56
2021/01/23 09:29:46;;;;;;;6.90;3.90;;;6.20;99.90;;;;;;5010571;28;20397;-56
2021/01/23 09:32:12;;;;;;;7.60;4.00;;;6.30;99.90;;;;;;5008186;28;20511;-56
2021/01/23 09:34:38;;;;;;;7.80;4.10;;;6.90;99.90;;;;;;5010138;28;20504;-55
2021/01/23 09:37:04;;;;;;;7.72;4.00;;;6.40;99.90;;;;;;5010484;28;20385;-56
2021/01/23 09:39:31;;;;;;;7.38;3.22;;;6.40;99.90;;;;;;5010861;28;20412;-56
2021/01/23 09:42:00;;;;;;;8.27;3.83;;;6.30;99.90;;;;;;5010777;28;20404;-56
2021/01/23 09:44:27;;;;;;;6.60;3.60;;;6.30;99.90;;;;;;5010025;28;20453;-56
2021/01/23 09:46:53;;;;;;;9.20;4.50;;;6.00;99.90;;;;;;5007334;28;20939;-56
2021/01/23 09:49:19;;;;;;;9.60;5.32;;;6.20;99.90;;;;;;5010672;28;20413;-56
2021/01/23 09:51:45;;;;;;;6.90;4.00;;;5.90;99.90;;;;;;5009062;28;20743;-55
2021/01/23 09:54:11;;;;;;;8.00;4.83;;;5.90;99.90;;;;;;5011428;28;20385;-55
2021/01/23 09:56:37;;;;;;;14.02;10.07;;;5.90;99.90;;;;;;5009015;28;20408;-56
2021/01/23 09:59:03;;;;;;;13.30;10.90;;;6.10;99.90;;;;;;5011237;28;20407;-55
2021/01/23 10:01:28;;;;;;;9.02;5.55;;;6.40;99.90;;;;;;5008677;28;20405;-56
2021/01/23 10:03:54;;;;;;;7.70;3.60;;;4.60;99.90;;;;;;5005974;28;20503;-56
2021/01/23 10:06:20;;;;;;;6.37;3.50;;;6.30;99.90;;;;;;5006923;28;20430;-56
2021/01/23 10:08:45;;;;;;;8.23;3.50;;;6.40;99.90;;;;;;5006669;28;20416;-56
2021/01/23 10:11:11;;;;;;;6.53;3.50;;;6.60;99.90;;;;;;5009817;28;20413;-56
2021/01/23 10:13:36;;;;;;;7.07;4.10;;;6.40;99.90;;;;;;5000672;28;20760;-56
2021/01/23 10:16:03;;;;;;;6.87;4.00;;;6.60;99.90;;;;;;5003616;28;20402;-55
2021/01/23 10:18:28;;;;;;;7.00;3.35;;;6.90;99.90;;;;;;5007923;28;20831;-56
2021/01/23 10:20:54;;;;;;;6.33;3.70;;;6.80;99.90;;;;;;5006442;28;20408;-56
2021/01/23 10:23:20;;;;;;;7.57;3.20;;;6.70;99.90;;;;;;5007530;28;20930;-56
2021/01/23 10:25:46;;;;;;;8.20;3.30;;;6.80;99.90;;;;;;5006646;28;20486;-56
2021/01/23 10:28:12;;;;;;;15.17;12.10;;;7.10;99.90;;;;;;5006285;28;20499;-56
2021/01/23 10:30:37;;;;;;;22.98;15.15;;;7.20;99.90;;;;;;5008104;28;20388;-56
2021/01/23 10:33:03;;;;;;;27.67;17.33;;;7.20;99.90;;;;;;5001772;28;20421;-56
2021/01/23 10:35:29;;;;;;;15.02;8.10;;;7.10;99.90;;;;;;5008059;28;20392;-57
2021/01/23 10:37:54;;;;;;;19.40;13.45;;;7.00;99.90;;;;;;5007762;28;20755;-57
2021/01/23 10:40:20;;;;;;;31.73;22.50;;;6.90;99.90;;;;;;5008060;28;20424;-56
2021/01/23 10:42:46;;;;;;;26.17;19.50;;;6.90;99.90;;;;;;5010062;28;20385;-57
2021/01/23 10:45:11;;;;;;;16.30;10.20;;;6.70;99.90;;;;;;5025694;28;20446;-56
2021/01/23 10:47:38;;;;;;;10.82;6.50;;;6.60;99.90;;;;;;5005332;28;20424;-56
2021/01/23 10:50:05;;;;;;;10.35;5.38;;;6.80;99.90;;;;;;5009862;28;20475;-56
2021/01/23 10:52:31;;;;;;;29.27;15.38;;;6.50;99.90;;;;;;5010012;28;20479;-56
2021/01/23 10:54:57;;;;;;;13.70;8.25;;;6.50;99.90;;;;;;5008618;28;20816;-56
2021/01/23 10:57:23;;;;;;;8.10;4.10;;;6.40;99.90;;;;;;5008147;28;20495;-56
2021/01/23 10:59:48;;;;;;;8.63;4.50;;;6.50;99.90;;;;;;5003511;28;20405;-56
2021/01/23 11:02:14;;;;;;;8.98;5.53;;;6.30;99.90;;;;;;4994985;28;20438;-55
2021/01/23 11:04:40;;;;;;;5.93;3.40;;;6.00;99.90;;;;;;4999242;28;20401;-55
2021/01/23 11:07:05;;;;;;;8.00;3.38;;;6.10;99.90;;;;;;5008097;28;20443;-56
2021/01/23 11:09:31;;;;;;;7.13;4.23;;;6.20;99.90;;;;;;5006913;28;20440;-56
2021/01/23 11:11:56;;;;;;;7.70;3.92;;;6.10;99.90;;;;;;5008968;28;20397;-55
2021/01/23 11:14:22;;;;;;;6.57;3.77;;;6.20;99.90;;;;;;5008569;28;20432;-56
2021/01/23 11:16:49;;;;;;;6.65;3.03;;;6.70;99.90;;;;;;5004333;28;20412;-56
2021/01/23 11:19:15;;;;;;;5.95;2.80;;;7.10;99.90;;;;;;5006395;28;20412;-56
2021/01/23 11:21:41;;;;;;;6.03;2.67;;;6.90;99.90;;;;;;5005075;28;20408;-56
2021/01/23 11:24:07;;;;;;;5.40;2.80;;;7.30;99.90;;;;;;5008140;28;20400;-53
2021/01/23 11:26:33;;;;;;;5.22;2.78;;;7.90;99.90;;;;;;5007547;28;20471;-56
2021/01/23 11:28:59;;;;;;;6.87;2.97;;;7.70;99.90;;;;;;5008446;28;20508;-53
2021/01/23 11:31:24;;;;;;;7.90;3.92;;;8.30;99.90;;;;;;5006946;28;20396;-53
2021/01/23 11:33:50;;;;;;;5.53;2.80;;;8.80;99.90;;;;;;5004902;28;20397;-53
2021/01/23 11:36:16;;;;;;;6.10;3.50;;;9.10;99.90;;;;;;5008911;28;20406;-53
2021/01/23 11:38:41;;;;;;;5.30;2.90;;;8.80;99.90;;;;;;5008241;28;20820;-53
2021/01/23 11:41:07;;;;;;;7.00;3.00;;;8.60;99.90;;;;;;5010169;28;20385;-54
2021/01/23 11:43:33;;;;;;;7.45;4.00;;;8.10;99.90;;;;;;5008324;28;20408;-56
2021/01/23 11:46:01;;;;;;;8.25;3.30;;;7.70;99.90;;;;;;5004059;28;20447;-56
2021/01/23 11:48:27;;;;;;;7.40;5.18;;;7.60;99.90;;;;;;5008318;28;20412;-56
2021/01/23 11:50:53;;;;;;;6.70;3.80;;;7.40;99.90;;;;;;5003543;28;20555;-57
2021/01/23 11:53:18;;;;;;;6.75;2.80;;;7.20;99.90;;;;;;5006049;28;20484;-56
2021/01/23 11:55:45;;;;;;;6.10;3.15;;;7.10;99.90;;;;;;5004995;28;20389;-56
2021/01/23 11:58:11;;;;;;;6.72;2.80;;;7.00;99.90;;;;;;5006448;28;20878;-57
2021/01/23 12:00:37;;;;;;;8.30;3.20;;;6.70;99.90;;;;;;5004964;28;20400;-57
2021/01/23 12:03:04;;;;;;;6.10;3.30;;;6.40;99.90;;;;;;5000803;28;20799;-57
2021/01/23 12:05:32;;;;;;;6.93;3.10;;;6.10;99.90;;;;;;5007053;28;20512;-56
2021/01/23 12:07:57;;;;;;;5.80;2.80;;;5.90;99.90;;;;;;5006841;28;20428;-56
2021/01/23 12:10:23;;;;;;;7.37;2.87;;;5.80;99.90;;;;;;5006056;28;21269;-54
2021/01/23 12:12:50;;;;;;;5.75;2.25;;;5.80;99.90;;;;;;5011090;28;20406;-56
2021/01/23 12:15:16;;;;;;;6.30;2.27;;;5.90;99.90;;;;;;5008862;28;20432;-56
2021/01/23 12:17:42;;;;;;;4.72;2.40;;;5.80;99.90;;;;;;5009163;28;20413;-53
2021/01/23 12:20:09;;;;;;;6.25;2.78;;;5.60;99.90;;;;;;5010141;28;20429;-56
2021/01/23 12:22:35;;;;;;;5.63;2.70;;;5.80;99.90;;;;;;5010739;28;20411;-56
2021/01/23 12:25:02;;;;;;;4.87;2.40;;;6.20;99.90;;;;;;5009155;28;20392;-57
2021/01/23 12:27:28;;;;;;;5.50;2.70;;;6.50;99.90;;;;;;5004216;28;20414;-57
2021/01/23 12:29:54;;;;;;;5.90;2.40;;;6.80;99.90;;;;;;5007425;28;20405;-56
2021/01/23 12:32:19;;;;;;;5.18;2.78;;;6.80;99.90;;;;;;5004677;28;20463;-57
2021/01/23 12:34:45;;;;;;;8.50;2.90;;;6.80;99.90;;;;;;5011152;28;20400;-57
2021/01/23 12:37:11;;;;;;;4.93;2.75;;;6.90;99.90;;;;;;5011338;28;20403;-57
2021/01/23 12:39:36;;;;;;;4.90;2.60;;;7.10;99.90;;;;;;5013518;28;20387;-57
2021/01/23 12:42:03;;;;;;;10.65;4.75;;;7.20;99.90;;;;;;5012642;28;20395;-56
2021/01/23 12:44:28;;;;;;;6.00;2.93;;;7.20;99.90;;;;;;5011058;28;20878;-57
2021/01/23 12:46:54;;;;;;;8.20;2.60;;;7.30;99.90;;;;;;5011378;28;20394;-56
2021/01/23 12:49:20;;;;;;;5.57;2.93;;;7.30;99.90;;;;;;5010581;28;20483;-57
2021/01/23 12:51:45;;;;;;;7.88;2.97;;;7.30;99.90;;;;;;5004810;28;20398;-56
2021/01/23 12:54:11;;;;;;;8.10;2.80;;;7.40;99.90;;;;;;5009218;28;20392;-57
2021/01/23 12:56:37;;;;;;;4.93;2.40;;;7.50;99.90;;;;;;5007094;28;20428;-56
2021/01/23 12:59:02;;;;;;;6.63;2.47;;;7.60;99.90;;;;;;4998845;28;20410;-56